sensor_id;sensor_type;location;lat;lon;timestamp;P1;durP1;ratioP1;P2;durP2;ratioP2
49722;SDS011;43484;43.608;1.458;2023-03-04T00:02:17;65.37;;;34.37;;
49722;SDS011;43484;43.608;1.458;2023-03-04T00:04:44;67.53;;;36.53;;
49722;SDS011;43484;43.608;1.458;2023-03-04T00:07:11;65.80;;;34.43;;
49722;SDS011;43484;43.608;1.458;2023-03-04T00:09:44;66.95;;;34.80;;
49722;SDS011;43484;43.608;1.458;2023-03-04T00:12:11;68.23;;;35.57;;
49722;SDS011;43484;43.608;1.458;2023-03-04T00:14:39;65.17;;;35.33;;
49722;SDS011;43484;43.608;1.458;2023-03-04T00:17:06;71.30;;;35.17;;
49722;SDS011;43484;43.608;1.458;2023-03-04T00:19:33;71.33;;;35.50;;
49722;SDS011;43484;43.608;1.458;2023-03-04T00:22:01;75.13;;;36.57;;
49722;SDS011;43484;43.608;1.458;2023-03-04T00:24:29;64.03;;;34.87;;
49722;SDS011;43484;43.608;1.458;2023-03-04T00:26:55;59.17;;;31.87;;
49722;SDS011;43484;43.608;1.458;2023-03-04T00:29:22;63.80;;;33.67;;
49722;SDS011;43484;43.608;1.458;2023-03-04T00:31:49;65.57;;;34.83;;
49722;SDS011;43484;43.608;1.458;2023-03-04T00:34:15;62.20;;;32.63;;
49722;SDS011;43484;43.608;1.458;2023-03-04T00:36:42;62.00;;;33.83;;
49722;SDS011;43484;43.608;1.458;2023-03-04T00:39:10;61.97;;;33.07;;
49722;SDS011;43484;43.608;1.458;2023-03-04T00:41:37;64.60;;;34.27;;
49722;SDS011;43484;43.608;1.458;2023-03-04T00:44:04;65.07;;;34.90;;
49722;SDS011;43484;43.608;1.458;2023-03-04T00:46:31;59.83;;;32.30;;
49722;SDS011;43484;43.608;1.458;2023-03-04T00:48:58;66.87;;;34.00;;
49722;SDS011;43484;43.608;1.458;2023-03-04T00:51:25;73.43;;;34.10;;
49722;SDS011;43484;43.608;1.458;2023-03-04T00:53:51;67.13;;;32.63;;
49722;SDS011;43484;43.608;1.458;2023-03-04T00:56:18;66.57;;;34.53;;
49722;SDS011;43484;43.608;1.458;2023-03-04T00:58:44;67.67;;;35.13;;
49722;SDS011;43484;43.608;1.458;2023-03-04T01:01:11;64.30;;;34.23;;
49722;SDS011;43484;43.608;1.458;2023-03-04T01:03:38;64.73;;;34.17;;
49722;SDS011;43484;43.608;1.458;2023-03-04T01:06:07;64.77;;;34.10;;
49722;SDS011;43484;43.608;1.458;2023-03-04T01:08:34;60.43;;;32.40;;
49722;SDS011;43484;43.608;1.458;2023-03-04T01:11:00;61.77;;;33.80;;
49722;SDS011;43484;43.608;1.458;2023-03-04T01:13:27;64.90;;;33.13;;
49722;SDS011;43484;43.608;1.458;2023-03-04T01:15:54;62.33;;;33.20;;
49722;SDS011;43484;43.608;1.458;2023-03-04T01:18:21;60.87;;;32.70;;
49722;SDS011;43484;43.608;1.458;2023-03-04T01:20:48;61.87;;;34.77;;
49722;SDS011;43484;43.608;1.458;2023-03-04T01:23:14;65.23;;;32.73;;
49722;SDS011;43484;43.608;1.458;2023-03-04T01:25:41;56.53;;;31.83;;
49722;SDS011;43484;43.608;1.458;2023-03-04T01:28:08;65.43;;;34.47;;
49722;SDS011;43484;43.608;1.458;2023-03-04T01:30:35;65.27;;;35.87;;
49722;SDS011;43484;43.608;1.458;2023-03-04T01:33:02;61.67;;;33.53;;
49722;SDS011;43484;43.608;1.458;2023-03-04T01:35:29;60.33;;;31.37;;
49722;SDS011;43484;43.608;1.458;2023-03-04T01:37:55;64.13;;;32.70;;
49722;SDS011;43484;43.608;1.458;2023-03-04T01:40:22;67.07;;;31.97;;
49722;SDS011;43484;43.608;1.458;2023-03-04T01:42:49;57.77;;;32.33;;
49722;SDS011;43484;43.608;1.458;2023-03-04T01:45:16;67.73;;;35.30;;
49722;SDS011;43484;43.608;1.458;2023-03-04T01:47:45;58.37;;;32.40;;
49722;SDS011;43484;43.608;1.458;2023-03-04T01:50:47;65.23;;;34.53;;
49722;SDS011;43484;43.608;1.458;2023-03-04T01:53:08;70.20;;;36.13;;
49722;SDS011;43484;43.608;1.458;2023-03-04T01:55:42;70.70;;;36.00;;
49722;SDS011;43484;43.608;1.458;2023-03-04T01:58:11;75.47;;;34.90;;
49722;SDS011;43484;43.608;1.458;2023-03-04T02:00:38;69.07;;;35.53;;
49722;SDS011;43484;43.608;1.458;2023-03-04T02:03:10;70.33;;;34.03;;
49722;SDS011;43484;43.608;1.458;2023-03-04T02:05:41;64.60;;;32.93;;
49722;SDS011;43484;43.608;1.458;2023-03-04T02:08:11;61.50;;;31.90;;
49722;SDS011;43484;43.608;1.458;2023-03-04T02:10:41;64.50;;;34.90;;
49722;SDS011;43484;43.608;1.458;2023-03-04T02:13:08;71.30;;;33.47;;
49722;SDS011;43484;43.608;1.458;2023-03-04T02:15:36;65.33;;;34.00;;
49722;SDS011;43484;43.608;1.458;2023-03-04T02:18:06;60.17;;;33.00;;
49722;SDS011;43484;43.608;1.458;2023-03-04T02:20:43;67.37;;;32.60;;
49722;SDS011;43484;43.608;1.458;2023-03-04T02:23:34;60.63;;;32.00;;
49722;SDS011;43484;43.608;1.458;2023-03-04T02:28:47;61.20;;;31.87;;
49722;SDS011;43484;43.608;1.458;2023-03-04T02:34:24;63.73;;;32.77;;
49722;SDS011;43484;43.608;1.458;2023-03-04T02:36:51;69.03;;;32.67;;
49722;SDS011;43484;43.608;1.458;2023-03-04T02:41:45;64.03;;;33.33;;
49722;SDS011;43484;43.608;1.458;2023-03-04T02:44:17;58.67;;;31.80;;
49722;SDS011;43484;43.608;1.458;2023-03-04T02:46:46;67.23;;;32.90;;
49722;SDS011;43484;43.608;1.458;2023-03-04T02:49:15;64.73;;;31.77;;
49722;SDS011;43484;43.608;1.458;2023-03-04T02:51:42;57.93;;;31.77;;
49722;SDS011;43484;43.608;1.458;2023-03-04T02:54:14;64.50;;;32.13;;
49722;SDS011;43484;43.608;1.458;2023-03-04T02:56:48;59.93;;;32.23;;
49722;SDS011;43484;43.608;1.458;2023-03-04T02:59:17;62.97;;;32.10;;
49722;SDS011;43484;43.608;1.458;2023-03-04T03:01:45;64.63;;;31.87;;
49722;SDS011;43484;43.608;1.458;2023-03-04T03:04:12;65.33;;;32.60;;
49722;SDS011;43484;43.608;1.458;2023-03-04T03:06:39;62.40;;;32.30;;
49722;SDS011;43484;43.608;1.458;2023-03-04T03:09:07;61.37;;;32.97;;
49722;SDS011;43484;43.608;1.458;2023-03-04T03:11:33;63.70;;;32.83;;
49722;SDS011;43484;43.608;1.458;2023-03-04T03:14:00;66.67;;;33.77;;
49722;SDS011;43484;43.608;1.458;2023-03-04T03:16:27;63.80;;;32.17;;
49722;SDS011;43484;43.608;1.458;2023-03-04T03:18:54;66.87;;;33.63;;
49722;SDS011;43484;43.608;1.458;2023-03-04T03:21:21;64.27;;;32.77;;
49722;SDS011;43484;43.608;1.458;2023-03-04T03:23:48;58.73;;;32.67;;
49722;SDS011;43484;43.608;1.458;2023-03-04T03:26:16;63.43;;;31.77;;
49722;SDS011;43484;43.608;1.458;2023-03-04T03:28:43;61.87;;;32.33;;
49722;SDS011;43484;43.608;1.458;2023-03-04T03:31:10;64.53;;;33.43;;
49722;SDS011;43484;43.608;1.458;2023-03-04T03:33:37;63.23;;;31.47;;
49722;SDS011;43484;43.608;1.458;2023-03-04T03:36:04;62.20;;;32.47;;
49722;SDS011;43484;43.608;1.458;2023-03-04T03:38:31;63.03;;;32.00;;
49722;SDS011;43484;43.608;1.458;2023-03-04T03:40:58;59.30;;;31.50;;
49722;SDS011;43484;43.608;1.458;2023-03-04T03:43:25;62.03;;;32.00;;
49722;SDS011;43484;43.608;1.458;2023-03-04T03:45:51;59.20;;;31.70;;
49722;SDS011;43484;43.608;1.458;2023-03-04T03:48:18;60.60;;;31.80;;
49722;SDS011;43484;43.608;1.458;2023-03-04T03:50:45;61.37;;;32.53;;
49722;SDS011;43484;43.608;1.458;2023-03-04T03:53:11;62.17;;;32.13;;
49722;SDS011;43484;43.608;1.458;2023-03-04T03:55:38;59.73;;;30.90;;
49722;SDS011;43484;43.608;1.458;2023-03-04T03:58:05;63.93;;;31.40;;
49722;SDS011;43484;43.608;1.458;2023-03-04T04:00:31;60.60;;;30.87;;
49722;SDS011;43484;43.608;1.458;2023-03-04T04:02:58;56.47;;;29.90;;
49722;SDS011;43484;43.608;1.458;2023-03-04T04:05:26;56.13;;;29.63;;
49722;SDS011;43484;43.608;1.458;2023-03-04T04:07:53;56.37;;;30.90;;
49722;SDS011;43484;43.608;1.458;2023-03-04T04:10:20;55.50;;;29.63;;
49722;SDS011;43484;43.608;1.458;2023-03-04T04:12:46;57.67;;;29.77;;
49722;SDS011;43484;43.608;1.458;2023-03-04T04:15:13;57.17;;;29.83;;
49722;SDS011;43484;43.608;1.458;2023-03-04T04:17:40;62.40;;;32.30;;
49722;SDS011;43484;43.608;1.458;2023-03-04T04:20:07;61.47;;;32.20;;
49722;SDS011;43484;43.608;1.458;2023-03-04T04:22:34;67.43;;;31.10;;
49722;SDS011;43484;43.608;1.458;2023-03-04T04:25:01;58.63;;;30.07;;
49722;SDS011;43484;43.608;1.458;2023-03-04T04:27:27;58.63;;;30.77;;
49722;SDS011;43484;43.608;1.458;2023-03-04T04:29:54;52.03;;;28.37;;
49722;SDS011;43484;43.608;1.458;2023-03-04T04:32:21;54.90;;;29.77;;
49722;SDS011;43484;43.608;1.458;2023-03-04T04:34:47;53.40;;;29.63;;
49722;SDS011;43484;43.608;1.458;2023-03-04T04:37:14;56.07;;;29.93;;
49722;SDS011;43484;43.608;1.458;2023-03-04T04:39:40;55.70;;;30.00;;
49722;SDS011;43484;43.608;1.458;2023-03-04T04:42:08;56.23;;;30.03;;
49722;SDS011;43484;43.608;1.458;2023-03-04T04:44:36;63.00;;;30.03;;
49722;SDS011;43484;43.608;1.458;2023-03-04T04:47:08;56.70;;;30.13;;
49722;SDS011;43484;43.608;1.458;2023-03-04T04:49:35;60.33;;;28.80;;
49722;SDS011;43484;43.608;1.458;2023-03-04T04:52:01;55.77;;;29.40;;
49722;SDS011;43484;43.608;1.458;2023-03-04T04:54:28;53.27;;;29.30;;
49722;SDS011;43484;43.608;1.458;2023-03-04T04:56:55;56.43;;;30.00;;
49722;SDS011;43484;43.608;1.458;2023-03-04T04:59:21;53.83;;;29.00;;
49722;SDS011;43484;43.608;1.458;2023-03-04T05:01:48;59.37;;;30.27;;
49722;SDS011;43484;43.608;1.458;2023-03-04T05:04:14;57.60;;;29.33;;
49722;SDS011;43484;43.608;1.458;2023-03-04T05:06:41;52.30;;;28.27;;
49722;SDS011;43484;43.608;1.458;2023-03-04T05:09:08;56.77;;;29.03;;
49722;SDS011;43484;43.608;1.458;2023-03-04T05:11:34;58.20;;;29.73;;
49722;SDS011;43484;43.608;1.458;2023-03-04T05:14:01;55.70;;;28.70;;
49722;SDS011;43484;43.608;1.458;2023-03-04T05:16:28;53.20;;;28.87;;
49722;SDS011;43484;43.608;1.458;2023-03-04T05:18:54;55.33;;;28.57;;
49722;SDS011;43484;43.608;1.458;2023-03-04T05:21:21;55.30;;;27.63;;
49722;SDS011;43484;43.608;1.458;2023-03-04T05:23:47;52.20;;;28.50;;
49722;SDS011;43484;43.608;1.458;2023-03-04T05:26:15;51.07;;;28.57;;
49722;SDS011;43484;43.608;1.458;2023-03-04T05:28:42;53.13;;;27.40;;
49722;SDS011;43484;43.608;1.458;2023-03-04T05:31:10;52.77;;;27.87;;
49722;SDS011;43484;43.608;1.458;2023-03-04T05:33:37;54.20;;;29.57;;
49722;SDS011;43484;43.608;1.458;2023-03-04T05:36:04;54.37;;;27.20;;
49722;SDS011;43484;43.608;1.458;2023-03-04T05:38:32;59.77;;;29.53;;
49722;SDS011;43484;43.608;1.458;2023-03-04T05:41:01;54.07;;;28.37;;
49722;SDS011;43484;43.608;1.458;2023-03-04T05:43:30;64.40;;;28.73;;
49722;SDS011;43484;43.608;1.458;2023-03-04T05:45:57;60.20;;;28.53;;
49722;SDS011;43484;43.608;1.458;2023-03-04T05:48:24;60.87;;;28.50;;
49722;SDS011;43484;43.608;1.458;2023-03-04T05:50:58;56.67;;;27.63;;
49722;SDS011;43484;43.608;1.458;2023-03-04T05:55:53;53.27;;;26.27;;
49722;SDS011;43484;43.608;1.458;2023-03-04T05:58:20;49.57;;;27.43;;
49722;SDS011;43484;43.608;1.458;2023-03-04T06:00:47;50.53;;;26.37;;
49722;SDS011;43484;43.608;1.458;2023-03-04T06:03:17;51.10;;;28.93;;
49722;SDS011;43484;43.608;1.458;2023-03-04T06:05:46;49.67;;;26.00;;
49722;SDS011;43484;43.608;1.458;2023-03-04T06:08:13;54.77;;;28.13;;
49722;SDS011;43484;43.608;1.458;2023-03-04T06:10:40;56.00;;;26.90;;
49722;SDS011;43484;43.608;1.458;2023-03-04T06:13:07;47.47;;;26.07;;
49722;SDS011;43484;43.608;1.458;2023-03-04T06:15:34;58.20;;;27.77;;
49722;SDS011;43484;43.608;1.458;2023-03-04T06:18:01;53.83;;;29.07;;
49722;SDS011;43484;43.608;1.458;2023-03-04T06:20:28;55.13;;;28.27;;
49722;SDS011;43484;43.608;1.458;2023-03-04T06:22:55;45.60;;;26.33;;
49722;SDS011;43484;43.608;1.458;2023-03-04T06:25:22;49.80;;;26.90;;
49722;SDS011;43484;43.608;1.458;2023-03-04T06:27:49;51.97;;;26.27;;
49722;SDS011;43484;43.608;1.458;2023-03-04T06:30:16;49.63;;;26.70;;
49722;SDS011;43484;43.608;1.458;2023-03-04T06:32:44;56.27;;;28.10;;
49722;SDS011;43484;43.608;1.458;2023-03-04T06:35:12;48.63;;;26.90;;
49722;SDS011;43484;43.608;1.458;2023-03-04T06:37:40;46.70;;;26.33;;
49722;SDS011;43484;43.608;1.458;2023-03-04T06:40:08;51.97;;;27.87;;
49722;SDS011;43484;43.608;1.458;2023-03-04T06:42:35;52.90;;;27.67;;
49722;SDS011;43484;43.608;1.458;2023-03-04T06:45:02;50.13;;;27.13;;
49722;SDS011;43484;43.608;1.458;2023-03-04T06:47:30;49.25;;;25.83;;
49722;SDS011;43484;43.608;1.458;2023-03-04T06:49:56;49.33;;;26.67;;
49722;SDS011;43484;43.608;1.458;2023-03-04T06:52:23;58.27;;;27.73;;
49722;SDS011;43484;43.608;1.458;2023-03-04T06:54:49;52.38;;;26.85;;
49722;SDS011;43484;43.608;1.458;2023-03-04T06:57:16;51.30;;;27.33;;
49722;SDS011;43484;43.608;1.458;2023-03-04T06:59:43;50.70;;;26.80;;
49722;SDS011;43484;43.608;1.458;2023-03-04T07:02:10;50.77;;;27.23;;
49722;SDS011;43484;43.608;1.458;2023-03-04T07:04:38;52.60;;;27.67;;
49722;SDS011;43484;43.608;1.458;2023-03-04T07:07:04;54.88;;;29.50;;
49722;SDS011;43484;43.608;1.458;2023-03-04T07:09:31;53.33;;;27.98;;
49722;SDS011;43484;43.608;1.458;2023-03-04T07:11:58;54.03;;;28.83;;
49722;SDS011;43484;43.608;1.458;2023-03-04T07:14:24;51.97;;;27.10;;
49722;SDS011;43484;43.608;1.458;2023-03-04T07:16:53;54.70;;;28.03;;
49722;SDS011;43484;43.608;1.458;2023-03-04T07:19:19;52.10;;;27.37;;
49722;SDS011;43484;43.608;1.458;2023-03-04T07:21:46;54.45;;;28.10;;
49722;SDS011;43484;43.608;1.458;2023-03-04T07:24:12;50.73;;;27.20;;
49722;SDS011;43484;43.608;1.458;2023-03-04T07:26:39;53.95;;;29.00;;
49722;SDS011;43484;43.608;1.458;2023-03-04T07:29:06;53.47;;;27.88;;
49722;SDS011;43484;43.608;1.458;2023-03-04T07:31:33;55.53;;;29.92;;
49722;SDS011;43484;43.608;1.458;2023-03-04T07:34:05;54.20;;;29.20;;
49722;SDS011;43484;43.608;1.458;2023-03-04T07:36:34;55.55;;;30.05;;
49722;SDS011;43484;43.608;1.458;2023-03-04T07:39:02;57.28;;;31.13;;
49722;SDS011;43484;43.608;1.458;2023-03-04T07:41:30;52.67;;;28.65;;
49722;SDS011;43484;43.608;1.458;2023-03-04T07:43:57;54.10;;;29.55;;
49722;SDS011;43484;43.608;1.458;2023-03-04T07:46:24;60.83;;;29.65;;
49722;SDS011;43484;43.608;1.458;2023-03-04T07:48:51;58.28;;;30.95;;
49722;SDS011;43484;43.608;1.458;2023-03-04T07:51:18;49.47;;;28.63;;
49722;SDS011;43484;43.608;1.458;2023-03-04T07:53:47;56.33;;;28.35;;
49722;SDS011;43484;43.608;1.458;2023-03-04T07:56:16;58.58;;;30.33;;
49722;SDS011;43484;43.608;1.458;2023-03-04T07:58:44;53.13;;;28.63;;
49722;SDS011;43484;43.608;1.458;2023-03-04T08:01:12;58.08;;;30.48;;
49722;SDS011;43484;43.608;1.458;2023-03-04T08:03:41;50.78;;;27.70;;
49722;SDS011;43484;43.608;1.458;2023-03-04T08:06:09;55.38;;;28.95;;
49722;SDS011;43484;43.608;1.458;2023-03-04T08:08:37;53.70;;;28.48;;
49722;SDS011;43484;43.608;1.458;2023-03-04T08:11:09;50.83;;;27.20;;
49722;SDS011;43484;43.608;1.458;2023-03-04T08:13:40;53.60;;;28.30;;
49722;SDS011;43484;43.608;1.458;2023-03-04T08:16:06;55.05;;;29.35;;
49722;SDS011;43484;43.608;1.458;2023-03-04T08:18:34;51.53;;;27.95;;
49722;SDS011;43484;43.608;1.458;2023-03-04T08:21:00;59.63;;;29.77;;
49722;SDS011;43484;43.608;1.458;2023-03-04T08:23:27;55.25;;;29.85;;
49722;SDS011;43484;43.608;1.458;2023-03-04T08:25:53;56.80;;;29.20;;
49722;SDS011;43484;43.608;1.458;2023-03-04T08:28:20;53.00;;;28.42;;
49722;SDS011;43484;43.608;1.458;2023-03-04T08:30:51;54.35;;;28.70;;
49722;SDS011;43484;43.608;1.458;2023-03-04T08:33:19;51.88;;;28.50;;
49722;SDS011;43484;43.608;1.458;2023-03-04T08:35:46;57.15;;;29.10;;
49722;SDS011;43484;43.608;1.458;2023-03-04T08:38:12;57.17;;;29.25;;
49722;SDS011;43484;43.608;1.458;2023-03-04T08:40:39;50.70;;;28.95;;
49722;SDS011;43484;43.608;1.458;2023-03-04T08:43:06;52.97;;;27.40;;
49722;SDS011;43484;43.608;1.458;2023-03-04T08:45:32;49.30;;;27.58;;
49722;SDS011;43484;43.608;1.458;2023-03-04T08:47:59;51.53;;;28.05;;
49722;SDS011;43484;43.608;1.458;2023-03-04T08:50:26;45.40;;;26.27;;
49722;SDS011;43484;43.608;1.458;2023-03-04T08:52:52;47.88;;;28.00;;
49722;SDS011;43484;43.608;1.458;2023-03-04T08:55:19;48.95;;;26.83;;
49722;SDS011;43484;43.608;1.458;2023-03-04T08:57:46;54.97;;;28.23;;
49722;SDS011;43484;43.608;1.458;2023-03-04T09:00:12;48.58;;;26.23;;
49722;SDS011;43484;43.608;1.458;2023-03-04T09:02:39;52.95;;;27.20;;
49722;SDS011;43484;43.608;1.458;2023-03-04T09:05:06;57.60;;;30.13;;
49722;SDS011;43484;43.608;1.458;2023-03-04T09:07:33;50.25;;;28.48;;
49722;SDS011;43484;43.608;1.458;2023-03-04T09:10:00;44.13;;;26.13;;
49722;SDS011;43484;43.608;1.458;2023-03-04T09:12:27;51.17;;;27.55;;
49722;SDS011;43484;43.608;1.458;2023-03-04T09:14:53;49.55;;;27.55;;
49722;SDS011;43484;43.608;1.458;2023-03-04T09:17:37;48.05;;;28.15;;
49722;SDS011;43484;43.608;1.458;2023-03-04T09:20:04;51.85;;;29.73;;
49722;SDS011;43484;43.608;1.458;2023-03-04T09:22:33;46.35;;;26.85;;
49722;SDS011;43484;43.608;1.458;2023-03-04T09:25:00;53.67;;;28.85;;
49722;SDS011;43484;43.608;1.458;2023-03-04T09:27:26;52.03;;;29.35;;
49722;SDS011;43484;43.608;1.458;2023-03-04T09:29:53;53.53;;;29.30;;
49722;SDS011;43484;43.608;1.458;2023-03-04T09:32:20;55.10;;;29.33;;
49722;SDS011;43484;43.608;1.458;2023-03-04T09:34:47;52.45;;;30.20;;
49722;SDS011;43484;43.608;1.458;2023-03-04T09:37:13;51.33;;;29.80;;
49722;SDS011;43484;43.608;1.458;2023-03-04T09:39:40;53.10;;;29.13;;
49722;SDS011;43484;43.608;1.458;2023-03-04T09:42:07;51.67;;;29.95;;
49722;SDS011;43484;43.608;1.458;2023-03-04T09:44:36;56.75;;;29.95;;
49722;SDS011;43484;43.608;1.458;2023-03-04T09:47:08;51.80;;;29.23;;
49722;SDS011;43484;43.608;1.458;2023-03-04T09:49:41;55.83;;;29.00;;
49722;SDS011;43484;43.608;1.458;2023-03-04T10:00:21;53.38;;;30.13;;
49722;SDS011;43484;43.608;1.458;2023-03-04T10:05:41;46.42;;;28.23;;
49722;SDS011;43484;43.608;1.458;2023-03-04T10:10:59;53.75;;;29.88;;
49722;SDS011;43484;43.608;1.458;2023-03-04T10:13:37;54.22;;;29.67;;
49722;SDS011;43484;43.608;1.458;2023-03-04T10:16:13;56.08;;;29.88;;
49722;SDS011;43484;43.608;1.458;2023-03-04T10:18:57;53.17;;;28.65;;
49722;SDS011;43484;43.608;1.458;2023-03-04T10:21:32;59.83;;;29.63;;
49722;SDS011;43484;43.608;1.458;2023-03-04T10:24:11;50.40;;;28.73;;
49722;SDS011;43484;43.608;1.458;2023-03-04T10:26:41;52.08;;;27.23;;
49722;SDS011;43484;43.608;1.458;2023-03-04T10:31:42;47.17;;;26.75;;
49722;SDS011;43484;43.608;1.458;2023-03-04T10:34:10;47.75;;;27.75;;
49722;SDS011;43484;43.608;1.458;2023-03-04T10:42:00;54.28;;;28.75;;
49722;SDS011;43484;43.608;1.458;2023-03-04T10:44:29;49.70;;;28.02;;
49722;SDS011;43484;43.608;1.458;2023-03-04T10:46:57;50.95;;;29.02;;
49722;SDS011;43484;43.608;1.458;2023-03-04T10:49:24;47.25;;;27.67;;
49722;SDS011;43484;43.608;1.458;2023-03-04T11:07:19;54.95;;;29.45;;
49722;SDS011;43484;43.608;1.458;2023-03-04T11:09:48;47.35;;;29.17;;
49722;SDS011;43484;43.608;1.458;2023-03-04T11:12:16;52.20;;;30.35;;
49722;SDS011;43484;43.608;1.458;2023-03-04T11:14:46;46.03;;;27.60;;
49722;SDS011;43484;43.608;1.458;2023-03-04T11:17:20;48.25;;;28.55;;
49722;SDS011;43484;43.608;1.458;2023-03-04T11:19:49;49.05;;;28.75;;
49722;SDS011;43484;43.608;1.458;2023-03-04T11:22:20;49.25;;;29.42;;
49722;SDS011;43484;43.608;1.458;2023-03-04T11:24:53;50.10;;;30.35;;
49722;SDS011;43484;43.608;1.458;2023-03-04T11:27:41;50.25;;;30.25;;
49722;SDS011;43484;43.608;1.458;2023-03-04T11:30:17;52.17;;;30.45;;
49722;SDS011;43484;43.608;1.458;2023-03-04T11:33:13;52.58;;;29.00;;
49722;SDS011;43484;43.608;1.458;2023-03-04T11:35:53;51.63;;;30.70;;
49722;SDS011;43484;43.608;1.458;2023-03-04T11:38:26;50.38;;;31.35;;
49722;SDS011;43484;43.608;1.458;2023-03-04T11:41:07;48.55;;;30.20;;
49722;SDS011;43484;43.608;1.458;2023-03-04T11:43:40;48.38;;;29.65;;
49722;SDS011;43484;43.608;1.458;2023-03-04T12:14:31;56.53;;;32.25;;
49722;SDS011;43484;43.608;1.458;2023-03-04T12:22:32;44.92;;;28.77;;
49722;SDS011;43484;43.608;1.458;2023-03-04T12:39:22;50.33;;;31.42;;
49722;SDS011;43484;43.608;1.458;2023-03-04T12:50:35;53.03;;;30.00;;
49722;SDS011;43484;43.608;1.458;2023-03-04T12:55:59;48.25;;;29.27;;
49722;SDS011;43484;43.608;1.458;2023-03-04T12:58:29;47.80;;;29.80;;
49722;SDS011;43484;43.608;1.458;2023-03-04T13:03:56;50.55;;;30.48;;
49722;SDS011;43484;43.608;1.458;2023-03-04T13:09:14;47.42;;;27.38;;
49722;SDS011;43484;43.608;1.458;2023-03-04T13:19:43;45.03;;;26.00;;
49722;SDS011;43484;43.608;1.458;2023-03-04T13:24:51;41.97;;;26.13;;
49722;SDS011;43484;43.608;1.458;2023-03-04T13:32:57;44.65;;;25.48;;
49722;SDS011;43484;43.608;1.458;2023-03-04T13:35:46;42.47;;;26.10;;
49722;SDS011;43484;43.608;1.458;2023-03-04T13:38:55;43.17;;;26.40;;
49722;SDS011;43484;43.608;1.458;2023-03-04T13:43:54;42.50;;;27.80;;
49722;SDS011;43484;43.608;1.458;2023-03-04T13:56:29;43.72;;;24.88;;
49722;SDS011;43484;43.608;1.458;2023-03-04T13:59:14;47.53;;;27.05;;
49722;SDS011;43484;43.608;1.458;2023-03-04T14:04:43;38.22;;;26.48;;
49722;SDS011;43484;43.608;1.458;2023-03-04T14:07:19;42.22;;;27.05;;
49722;SDS011;43484;43.608;1.458;2023-03-04T14:09:57;40.03;;;25.90;;
49722;SDS011;43484;43.608;1.458;2023-03-04T14:12:25;43.92;;;26.77;;
49722;SDS011;43484;43.608;1.458;2023-03-04T14:15:04;48.25;;;27.35;;
49722;SDS011;43484;43.608;1.458;2023-03-04T14:17:45;39.08;;;25.05;;
49722;SDS011;43484;43.608;1.458;2023-03-04T14:22:56;43.97;;;26.40;;
49722;SDS011;43484;43.608;1.458;2023-03-04T14:28:12;42.80;;;25.65;;
49722;SDS011;43484;43.608;1.458;2023-03-04T14:30:54;43.08;;;24.90;;
49722;SDS011;43484;43.608;1.458;2023-03-04T14:33:28;43.90;;;26.98;;
49722;SDS011;43484;43.608;1.458;2023-03-04T14:35:58;41.17;;;26.58;;
49722;SDS011;43484;43.608;1.458;2023-03-04T14:41:06;45.47;;;26.92;;
49722;SDS011;43484;43.608;1.458;2023-03-04T14:43:42;41.78;;;26.35;;
49722;SDS011;43484;43.608;1.458;2023-03-04T14:46:14;41.70;;;25.52;;
49722;SDS011;43484;43.608;1.458;2023-03-04T14:48:46;40.22;;;24.75;;
49722;SDS011;43484;43.608;1.458;2023-03-04T14:51:29;43.50;;;27.27;;
49722;SDS011;43484;43.608;1.458;2023-03-04T14:54:03;39.83;;;24.98;;
49722;SDS011;43484;43.608;1.458;2023-03-04T14:56:30;39.30;;;23.90;;
49722;SDS011;43484;43.608;1.458;2023-03-04T14:59:00;43.03;;;26.27;;
49722;SDS011;43484;43.608;1.458;2023-03-04T15:01:29;44.38;;;26.58;;
49722;SDS011;43484;43.608;1.458;2023-03-04T15:04:04;42.10;;;25.27;;
49722;SDS011;43484;43.608;1.458;2023-03-04T15:06:37;39.92;;;25.58;;
49722;SDS011;43484;43.608;1.458;2023-03-04T15:09:23;40.50;;;25.08;;
49722;SDS011;43484;43.608;1.458;2023-03-04T15:11:58;39.88;;;24.25;;
49722;SDS011;43484;43.608;1.458;2023-03-04T15:17:39;40.53;;;25.67;;
49722;SDS011;43484;43.608;1.458;2023-03-04T15:22:35;40.90;;;24.40;;
49722;SDS011;43484;43.608;1.458;2023-03-04T15:25:21;41.35;;;24.50;;
49722;SDS011;43484;43.608;1.458;2023-03-04T15:27:48;46.72;;;24.80;;
49722;SDS011;43484;43.608;1.458;2023-03-04T15:30:26;41.10;;;25.92;;
49722;SDS011;43484;43.608;1.458;2023-03-04T15:32:57;40.80;;;25.08;;
49722;SDS011;43484;43.608;1.458;2023-03-04T15:35:26;41.78;;;25.50;;
49722;SDS011;43484;43.608;1.458;2023-03-04T15:37:55;44.65;;;26.35;;
49722;SDS011;43484;43.608;1.458;2023-03-04T15:40:27;48.03;;;26.17;;
49722;SDS011;43484;43.608;1.458;2023-03-04T15:42:56;43.95;;;25.48;;
49722;SDS011;43484;43.608;1.458;2023-03-04T15:45:26;48.50;;;28.13;;
49722;SDS011;43484;43.608;1.458;2023-03-04T15:47:56;46.85;;;27.83;;
49722;SDS011;43484;43.608;1.458;2023-03-04T15:50:25;43.28;;;27.58;;
49722;SDS011;43484;43.608;1.458;2023-03-04T15:52:55;42.58;;;26.55;;
49722;SDS011;43484;43.608;1.458;2023-03-04T15:55:25;42.70;;;27.95;;
49722;SDS011;43484;43.608;1.458;2023-03-04T15:57:52;53.25;;;27.75;;
49722;SDS011;43484;43.608;1.458;2023-03-04T16:00:21;40.15;;;25.63;;
49722;SDS011;43484;43.608;1.458;2023-03-04T16:02:47;41.50;;;26.40;;
49722;SDS011;43484;43.608;1.458;2023-03-04T16:05:14;43.03;;;26.08;;
49722;SDS011;43484;43.608;1.458;2023-03-04T16:07:43;45.22;;;27.58;;
49722;SDS011;43484;43.608;1.458;2023-03-04T16:10:23;49.67;;;28.80;;
49722;SDS011;43484;43.608;1.458;2023-03-04T16:12:52;41.63;;;25.98;;
49722;SDS011;43484;43.608;1.458;2023-03-04T16:15:24;47.03;;;27.13;;
49722;SDS011;43484;43.608;1.458;2023-03-04T16:17:53;45.08;;;27.25;;
49722;SDS011;43484;43.608;1.458;2023-03-04T16:20:22;41.45;;;26.42;;
49722;SDS011;43484;43.608;1.458;2023-03-04T16:22:52;44.60;;;28.38;;
49722;SDS011;43484;43.608;1.458;2023-03-04T16:25:23;48.20;;;25.95;;
49722;SDS011;43484;43.608;1.458;2023-03-04T16:27:51;47.28;;;28.17;;
49722;SDS011;43484;43.608;1.458;2023-03-04T16:30:22;46.33;;;27.77;;
49722;SDS011;43484;43.608;1.458;2023-03-04T16:32:50;43.05;;;26.73;;
49722;SDS011;43484;43.608;1.458;2023-03-04T16:35:18;48.25;;;26.70;;
49722;SDS011;43484;43.608;1.458;2023-03-04T16:37:46;42.05;;;26.08;;
49722;SDS011;43484;43.608;1.458;2023-03-04T16:40:14;47.83;;;27.67;;
49722;SDS011;43484;43.608;1.458;2023-03-04T16:42:42;48.05;;;27.25;;
49722;SDS011;43484;43.608;1.458;2023-03-04T16:45:16;43.20;;;25.90;;
49722;SDS011;43484;43.608;1.458;2023-03-04T16:47:44;40.38;;;25.10;;
49722;SDS011;43484;43.608;1.458;2023-03-04T16:50:21;45.30;;;27.38;;
49722;SDS011;43484;43.608;1.458;2023-03-04T16:52:53;48.10;;;25.83;;
49722;SDS011;43484;43.608;1.458;2023-03-04T16:55:24;44.28;;;25.25;;
49722;SDS011;43484;43.608;1.458;2023-03-04T16:57:54;43.03;;;26.38;;
49722;SDS011;43484;43.608;1.458;2023-03-04T17:00:21;39.83;;;24.83;;
49722;SDS011;43484;43.608;1.458;2023-03-04T17:02:52;42.15;;;25.45;;
49722;SDS011;43484;43.608;1.458;2023-03-04T17:05:22;44.53;;;26.55;;
49722;SDS011;43484;43.608;1.458;2023-03-04T17:07:51;43.63;;;26.63;;
49722;SDS011;43484;43.608;1.458;2023-03-04T17:10:18;43.85;;;26.65;;
49722;SDS011;43484;43.608;1.458;2023-03-04T17:12:45;44.55;;;26.98;;